sensor_id;sensor_type;location;lat;lon;timestamp;pressure;altitude;pressure_sealevel;temperature;humidity
54144;BME280;40050;47.324;18.792;2023-02-11T00:01:49;1024.66;;;-2.63;63.71
54144;BME280;40050;47.324;18.792;2023-02-11T00:03:52;1024.68;;;-2.64;63.85
54144;BME280;40050;47.324;18.792;2023-02-11T00:05:58;1024.61;;;-2.70;63.95
54144;BME280;40050;47.324;18.792;2023-02-11T00:08:00;1024.60;;;-2.72;64.04
54144;BME280;40050;47.324;18.792;2023-02-11T00:10:03;1024.62;;;-2.71;64.06
54144;BME280;40050;47.324;18.792;2023-02-11T00:12:06;1024.64;;;-2.72;64.06
54144;BME280;40050;47.324;18.792;2023-02-11T00:14:08;1024.32;;;-2.94;64.11
54144;BME280;40050;47.324;18.792;2023-02-11T00:16:13;1024.57;;;-2.82;64.20
54144;BME280;40050;47.324;18.792;2023-02-11T00:18:16;1024.61;;;-2.82;64.28
54144;BME280;40050;47.324;18.792;2023-02-11T00:20:19;1024.55;;;-2.84;64.36
54144;BME280;40050;47.324;18.792;2023-02-11T00:22:21;1024.56;;;-2.89;64.55
54144;BME280;40050;47.324;18.792;2023-02-11T00:24:24;1024.51;;;-2.91;64.62
54144;BME280;40050;47.324;18.792;2023-02-11T00:26:27;1024.52;;;-2.92;64.75
54144;BME280;40050;47.324;18.792;2023-02-11T00:28:30;1024.49;;;-2.95;64.71
54144;BME280;40050;47.324;18.792;2023-02-11T00:30:33;1024.52;;;-2.93;64.82
54144;BME280;40050;47.324;18.792;2023-02-11T00:32:35;1024.52;;;-2.94;64.81
54144;BME280;40050;47.324;18.792;2023-02-11T00:34:38;1024.43;;;-2.94;64.89
54144;BME280;40050;47.324;18.792;2023-02-11T00:36:40;1024.43;;;-2.95;64.82
54144;BME280;40050;47.324;18.792;2023-02-11T00:38:43;1024.46;;;-2.93;64.79
54144;BME280;40050;47.324;18.792;2023-02-11T00:40:46;1024.44;;;-2.97;64.81
54144;BME280;40050;47.324;18.792;2023-02-11T00:42:49;1024.40;;;-3.00;64.82
54144;BME280;40050;47.324;18.792;2023-02-11T00:44:51;1024.41;;;-2.99;64.84
54144;BME280;40050;47.324;18.792;2023-02-11T00:46:53;1024.39;;;-2.98;64.82
54144;BME280;40050;47.324;18.792;2023-02-11T00:48:56;1024.40;;;-2.97;64.82
54144;BME280;40050;47.324;18.792;2023-02-11T00:50:58;1024.31;;;-2.96;64.77
54144;BME280;40050;47.324;18.792;2023-02-11T00:53:01;1024.26;;;-2.94;64.77
54144;BME280;40050;47.324;18.792;2023-02-11T00:55:04;1024.25;;;-2.94;64.72
54144;BME280;40050;47.324;18.792;2023-02-11T00:57:06;1024.21;;;-2.97;64.64
54144;BME280;40050;47.324;18.792;2023-02-11T00:59:09;1024.22;;;-2.95;64.52
54144;BME280;40050;47.324;18.792;2023-02-11T01:01:11;1024.23;;;-2.96;64.39
54144;BME280;40050;47.324;18.792;2023-02-11T01:03:14;1024.15;;;-3.05;64.39
54144;BME280;40050;47.324;18.792;2023-02-11T01:05:17;1024.23;;;-3.08;64.49
54144;BME280;40050;47.324;18.792;2023-02-11T01:07:19;1024.18;;;-3.12;64.56
54144;BME280;40050;47.324;18.792;2023-02-11T01:09:22;1024.19;;;-3.14;64.62
54144;BME280;40050;47.324;18.792;2023-02-11T01:11:24;1024.14;;;-3.16;64.69
54144;BME280;40050;47.324;18.792;2023-02-11T01:13:27;1024.04;;;-3.20;64.78
54144;BME280;40050;47.324;18.792;2023-02-11T01:15:30;1024.03;;;-3.19;64.75
54144;BME280;40050;47.324;18.792;2023-02-11T01:17:32;1024.02;;;-3.21;64.61
54144;BME280;40050;47.324;18.792;2023-02-11T01:19:35;1023.90;;;-3.26;64.44
54144;BME280;40050;47.324;18.792;2023-02-11T01:21:38;1023.94;;;-3.26;64.32
54144;BME280;40050;47.324;18.792;2023-02-11T01:23:40;1023.84;;;-3.32;64.26
54144;BME280;40050;47.324;18.792;2023-02-11T01:25:43;1023.90;;;-3.33;64.41
54144;BME280;40050;47.324;18.792;2023-02-11T01:27:45;1023.93;;;-3.35;64.57
54144;BME280;40050;47.324;18.792;2023-02-11T01:29:48;1023.88;;;-3.38;64.67
54144;BME280;40050;47.324;18.792;2023-02-11T01:31:50;1023.87;;;-3.38;64.74
54144;BME280;40050;47.324;18.792;2023-02-11T01:33:53;1023.58;;;-3.50;64.74
54144;BME280;40050;47.324;18.792;2023-02-11T01:35:58;1023.82;;;-3.36;64.75
54144;BME280;40050;47.324;18.792;2023-02-11T01:38:01;1023.36;;;-3.61;64.81
54144;BME280;40050;47.324;18.792;2023-02-11T01:40:05;1023.79;;;-3.38;64.84
54144;BME280;40050;47.324;18.792;2023-02-11T01:42:10;1023.82;;;-3.36;64.78
54144;BME280;40050;47.324;18.792;2023-02-11T01:44:26;1023.77;;;-3.39;64.69
54144;BME280;40050;47.324;18.792;2023-02-11T01:46:33;1023.79;;;-3.37;64.63
54144;BME280;40050;47.324;18.792;2023-02-11T01:48:37;1023.73;;;-3.38;64.67
54144;BME280;40050;47.324;18.792;2023-02-11T01:50:40;1023.68;;;-3.41;64.67
54144;BME280;40050;47.324;18.792;2023-02-11T01:52:44;1023.65;;;-3.49;64.72
54144;BME280;40050;47.324;18.792;2023-02-11T01:54:50;1023.67;;;-3.47;64.68
54144;BME280;40050;47.324;18.792;2023-02-11T01:56:54;1023.49;;;-3.60;64.67
54144;BME280;40050;47.324;18.792;2023-02-11T01:59:00;1023.60;;;-3.51;64.74
54144;BME280;40050;47.324;18.792;2023-02-11T02:01:04;1023.61;;;-3.54;64.79
54144;BME280;40050;47.324;18.792;2023-02-11T02:03:13;1023.60;;;-3.56;64.76
54144;BME280;40050;47.324;18.792;2023-02-11T02:05:20;1023.66;;;-3.55;64.77
54144;BME280;40050;47.324;18.792;2023-02-11T02:07:47;1023.67;;;-3.56;64.81
54144;BME280;40050;47.324;18.792;2023-02-11T02:09:42;1023.66;;;-3.56;64.81
54144;BME280;40050;47.324;18.792;2023-02-11T02:11:46;1023.64;;;-3.58;64.82
54144;BME280;40050;47.324;18.792;2023-02-11T02:13:49;1023.64;;;-3.58;64.62
54144;BME280;40050;47.324;18.792;2023-02-11T02:15:52;1023.63;;;-3.61;64.61
54144;BME280;40050;47.324;18.792;2023-02-11T02:20:26;1023.69;;;-3.61;64.86
54144;BME280;40050;47.324;18.792;2023-02-11T02:25:33;1023.57;;;-3.69;64.92
54144;BME280;40050;47.324;18.792;2023-02-11T02:27:48;1023.60;;;-3.68;64.94
54144;BME280;40050;47.324;18.792;2023-02-11T02:29:55;1023.58;;;-3.70;64.90
54144;BME280;40050;47.324;18.792;2023-02-11T02:34:40;1023.59;;;-3.71;64.94
54144;BME280;40050;47.324;18.792;2023-02-11T02:37:04;1023.50;;;-3.75;64.90
54144;BME280;40050;47.324;18.792;2023-02-11T02:39:10;1023.48;;;-3.76;64.89
54144;BME280;40050;47.324;18.792;2023-02-11T02:41:16;1023.52;;;-3.77;64.86
54144;BME280;40050;47.324;18.792;2023-02-11T02:43:20;1023.44;;;-3.80;64.92
54144;BME280;40050;47.324;18.792;2023-02-11T02:45:23;1023.42;;;-3.83;64.99
54144;BME280;40050;47.324;18.792;2023-02-11T02:47:26;1023.36;;;-3.87;65.10
54144;BME280;40050;47.324;18.792;2023-02-11T02:49:28;1023.40;;;-3.85;65.22
54144;BME280;40050;47.324;18.792;2023-02-11T02:56:29;1023.40;;;-3.91;65.53
54144;BME280;40050;47.324;18.792;2023-02-11T02:58:31;1023.44;;;-3.88;65.53
54144;BME280;40050;47.324;18.792;2023-02-11T03:07:43;1023.40;;;-3.95;65.47
54144;BME280;40050;47.324;18.792;2023-02-11T03:09:50;1023.44;;;-3.93;65.43
54144;BME280;40050;47.324;18.792;2023-02-11T03:11:56;1023.46;;;-3.91;65.45
54144;BME280;40050;47.324;18.792;2023-02-11T03:13:58;1023.49;;;-3.89;65.65
54144;BME280;40050;47.324;18.792;2023-02-11T03:16:12;1023.44;;;-3.92;65.59
54144;BME280;40050;47.324;18.792;2023-02-11T03:18:16;1023.48;;;-3.88;65.46
54144;BME280;40050;47.324;18.792;2023-02-11T03:20:20;1023.42;;;-3.88;65.30
54144;BME280;40050;47.324;18.792;2023-02-11T03:22:24;1023.37;;;-3.88;65.21
54144;BME280;40050;47.324;18.792;2023-02-11T03:24:29;1023.34;;;-3.88;65.35
54144;BME280;40050;47.324;18.792;2023-02-11T03:26:34;1023.30;;;-3.92;65.64
54144;BME280;40050;47.324;18.792;2023-02-11T03:28:57;1023.25;;;-3.95;65.66
54144;BME280;40050;47.324;18.792;2023-02-11T03:30:59;1023.31;;;-3.97;65.50
54144;BME280;40050;47.324;18.792;2023-02-11T03:33:23;1023.32;;;-3.97;65.40
54144;BME280;40050;47.324;18.792;2023-02-11T03:35:22;1023.35;;;-3.98;65.35
54144;BME280;40050;47.324;18.792;2023-02-11T03:37:34;1023.31;;;-3.98;65.38
54144;BME280;40050;47.324;18.792;2023-02-11T03:39:39;1023.23;;;-4.00;65.38
54144;BME280;40050;47.324;18.792;2023-02-11T03:41:43;1023.23;;;-3.97;65.31
54144;BME280;40050;47.324;18.792;2023-02-11T03:43:48;1023.19;;;-3.94;65.25
54144;BME280;40050;47.324;18.792;2023-02-11T03:45:51;1023.16;;;-3.93;65.24
54144;BME280;40050;47.324;18.792;2023-02-11T03:47:59;1023.12;;;-3.91;65.17
54144;BME280;40050;47.324;18.792;2023-02-11T03:50:03;1023.03;;;-3.90;64.97
54144;BME280;40050;47.324;18.792;2023-02-11T03:52:07;1023.00;;;-3.90;64.94
54144;BME280;40050;47.324;18.792;2023-02-11T03:54:10;1023.00;;;-3.88;64.92
54144;BME280;40050;47.324;18.792;2023-02-11T03:56:18;1022.92;;;-3.89;64.89
54144;BME280;40050;47.324;18.792;2023-02-11T03:58:21;1022.94;;;-3.87;64.86
54144;BME280;40050;47.324;18.792;2023-02-11T04:00:30;1022.91;;;-3.89;64.74
54144;BME280;40050;47.324;18.792;2023-02-11T04:02:34;1022.86;;;-3.90;64.68
54144;BME280;40050;47.324;18.792;2023-02-11T04:04:37;1022.79;;;-3.96;64.84
54144;BME280;40050;47.324;18.792;2023-02-11T04:06:39;1022.78;;;-3.94;64.82
54144;BME280;40050;47.324;18.792;2023-02-11T04:08:42;1022.71;;;-4.00;64.79
54144;BME280;40050;47.324;18.792;2023-02-11T04:10:44;1022.74;;;-4.00;64.57
54144;BME280;40050;47.324;18.792;2023-02-11T04:12:47;1022.74;;;-4.03;64.40
54144;BME280;40050;47.324;18.792;2023-02-11T04:14:53;1022.71;;;-4.07;64.32
54144;BME280;40050;47.324;18.792;2023-02-11T04:16:55;1022.67;;;-4.11;64.26
54144;BME280;40050;47.324;18.792;2023-02-11T04:18:57;1022.59;;;-4.15;64.26
54144;BME280;40050;47.324;18.792;2023-02-11T04:21:00;1022.62;;;-4.17;64.34
54144;BME280;40050;47.324;18.792;2023-02-11T04:23:02;1022.62;;;-4.19;64.32
54144;BME280;40050;47.324;18.792;2023-02-11T04:25:05;1022.57;;;-4.19;64.43
54144;BME280;40050;47.324;18.792;2023-02-11T04:27:08;1022.39;;;-4.29;64.49
54144;BME280;40050;47.324;18.792;2023-02-11T04:29:11;1022.50;;;-4.24;64.59
54144;BME280;40050;47.324;18.792;2023-02-11T04:31:13;1022.44;;;-4.28;64.65
54144;BME280;40050;47.324;18.792;2023-02-11T04:33:15;1022.14;;;-4.42;64.69
54144;BME280;40050;47.324;18.792;2023-02-11T04:35:18;1022.48;;;-4.26;64.47
54144;BME280;40050;47.324;18.792;2023-02-11T04:37:21;1022.48;;;-4.27;64.30
54144;BME280;40050;47.324;18.792;2023-02-11T04:39:23;1022.43;;;-4.31;64.19
54144;BME280;40050;47.324;18.792;2023-02-11T04:41:26;1022.43;;;-4.35;64.01
54144;BME280;40050;47.324;18.792;2023-02-11T04:43:28;1022.34;;;-4.46;63.90
54144;BME280;40050;47.324;18.792;2023-02-11T04:45:31;1022.37;;;-4.47;64.00
54144;BME280;40050;47.324;18.792;2023-02-11T04:47:33;1022.34;;;-4.53;64.17
54144;BME280;40050;47.324;18.792;2023-02-11T04:49:36;1022.41;;;-4.53;64.34
54144;BME280;40050;47.324;18.792;2023-02-11T04:51:38;1022.44;;;-4.47;64.45
54144;BME280;40050;47.324;18.792;2023-02-11T04:53:41;1022.47;;;-4.45;64.51
54144;BME280;40050;47.324;18.792;2023-02-11T04:55:44;1022.51;;;-4.45;64.59
54144;BME280;40050;47.324;18.792;2023-02-11T04:57:46;1022.32;;;-4.58;64.60
54144;BME280;40050;47.324;18.792;2023-02-11T04:59:49;1022.48;;;-4.47;64.63
54144;BME280;40050;47.324;18.792;2023-02-11T05:01:51;1022.47;;;-4.49;64.68
54144;BME280;40050;47.324;18.792;2023-02-11T05:03:53;1022.48;;;-4.49;64.86
54144;BME280;40050;47.324;18.792;2023-02-11T05:05:56;1022.46;;;-4.49;64.87
54144;BME280;40050;47.324;18.792;2023-02-11T05:07:58;1022.47;;;-4.52;64.77
54144;BME280;40050;47.324;18.792;2023-02-11T05:10:01;1022.45;;;-4.54;64.57
54144;BME280;40050;47.324;18.792;2023-02-11T05:12:03;1022.50;;;-4.54;64.44
54144;BME280;40050;47.324;18.792;2023-02-11T05:14:06;1022.47;;;-4.57;64.39
54144;BME280;40050;47.324;18.792;2023-02-11T05:16:08;1022.47;;;-4.59;64.23
54144;BME280;40050;47.324;18.792;2023-02-11T05:18:11;1022.45;;;-4.63;64.14
54144;BME280;40050;47.324;18.792;2023-02-11T05:20:13;1022.47;;;-4.61;63.98
54144;BME280;40050;47.324;18.792;2023-02-11T05:22:16;1022.48;;;-4.65;63.75
54144;BME280;40050;47.324;18.792;2023-02-11T05:24:18;1022.26;;;-4.83;63.63
54144;BME280;40050;47.324;18.792;2023-02-11T05:26:21;1022.47;;;-4.72;63.67
54144;BME280;40050;47.324;18.792;2023-02-11T05:28:23;1022.49;;;-4.76;63.91
54144;BME280;40050;47.324;18.792;2023-02-11T05:30:26;1022.49;;;-4.81;64.30
54144;BME280;40050;47.324;18.792;2023-02-11T05:32:29;1022.47;;;-4.83;64.58
54144;BME280;40050;47.324;18.792;2023-02-11T05:34:31;1022.43;;;-4.86;64.72
54144;BME280;40050;47.324;18.792;2023-02-11T05:36:34;1022.14;;;-5.06;64.94
54144;BME280;40050;47.324;18.792;2023-02-11T05:38:36;1022.43;;;-4.91;65.14
54144;BME280;40050;47.324;18.792;2023-02-11T05:40:39;1022.49;;;-4.93;65.35
54144;BME280;40050;47.324;18.792;2023-02-11T05:42:41;1022.47;;;-4.91;65.46
54144;BME280;40050;47.324;18.792;2023-02-11T05:44:44;1022.32;;;-4.94;65.62
54144;BME280;40050;47.324;18.792;2023-02-11T05:46:46;1022.34;;;-4.91;65.59
54144;BME280;40050;47.324;18.792;2023-02-11T05:48:49;1022.32;;;-4.92;65.62
54144;BME280;40050;47.324;18.792;2023-02-11T05:50:51;1022.26;;;-4.98;65.78
54144;BME280;40050;47.324;18.792;2023-02-11T05:52:54;1022.22;;;-4.97;65.89
54144;BME280;40050;47.324;18.792;2023-02-11T05:54:56;1022.31;;;-4.94;65.95
54144;BME280;40050;47.324;18.792;2023-02-11T05:56:58;1022.37;;;-4.91;66.07
54144;BME280;40050;47.324;18.792;2023-02-11T05:59:01;1022.42;;;-4.91;66.17
54144;BME280;40050;47.324;18.792;2023-02-11T06:01:03;1022.47;;;-4.89;66.23
54144;BME280;40050;47.324;18.792;2023-02-11T06:03:06;1022.40;;;-4.90;66.23
54144;BME280;40050;47.324;18.792;2023-02-11T06:05:08;1022.22;;;-4.97;66.19
54144;BME280;40050;47.324;18.792;2023-02-11T06:07:11;1022.46;;;-4.80;66.27
54144;BME280;40050;47.324;18.792;2023-02-11T06:09:13;1022.49;;;-4.79;66.33
54144;BME280;40050;47.324;18.792;2023-02-11T06:11:16;1022.49;;;-4.78;66.26
54144;BME280;40050;47.324;18.792;2023-02-11T06:13:19;1022.51;;;-4.77;66.11
54144;BME280;40050;47.324;18.792;2023-02-11T06:15:22;1022.41;;;-4.80;65.94
54144;BME280;40050;47.324;18.792;2023-02-11T06:17:24;1022.49;;;-4.75;65.87
54144;BME280;40050;47.324;18.792;2023-02-11T06:19:26;1022.49;;;-4.76;65.95
54144;BME280;40050;47.324;18.792;2023-02-11T06:21:29;1022.54;;;-4.70;66.04
54144;BME280;40050;47.324;18.792;2023-02-11T06:23:31;1022.49;;;-4.71;65.86
54144;BME280;40050;47.324;18.792;2023-02-11T06:25:34;1022.41;;;-4.69;65.70
54144;BME280;40050;47.324;18.792;2023-02-11T06:27:37;1022.45;;;-4.66;65.68
54144;BME280;40050;47.324;18.792;2023-02-11T06:29:39;1022.41;;;-4.64;65.78
54144;BME280;40050;47.324;18.792;2023-02-11T06:31:42;1022.43;;;-4.62;66.05
54144;BME280;40050;47.324;18.792;2023-02-11T06:33:44;1022.45;;;-4.61;66.21
54144;BME280;40050;47.324;18.792;2023-02-11T06:35:47;1022.41;;;-4.55;66.36
54144;BME280;40050;47.324;18.792;2023-02-11T06:37:49;1022.38;;;-4.48;66.44
54144;BME280;40050;47.324;18.792;2023-02-11T06:39:51;1022.37;;;-4.44;66.56
54144;BME280;40050;47.324;18.792;2023-02-11T06:41:54;1022.33;;;-4.47;66.85
54144;BME280;40050;47.324;18.792;2023-02-11T06:43:56;1022.38;;;-4.38;67.10
54144;BME280;40050;47.324;18.792;2023-02-11T06:45:59;1022.38;;;-4.33;67.25
54144;BME280;40050;47.324;18.792;2023-02-11T06:48:01;1022.33;;;-4.36;67.39
54144;BME280;40050;47.324;18.792;2023-02-11T06:50:04;1022.37;;;-4.27;67.42
54144;BME280;40050;47.324;18.792;2023-02-11T06:52:07;1022.25;;;-4.24;67.50
54144;BME280;40050;47.324;18.792;2023-02-11T06:54:10;1022.25;;;-4.13;67.53
54144;BME280;40050;47.324;18.792;2023-02-11T06:56:17;1022.26;;;-4.09;67.62
54144;BME280;40050;47.324;18.792;2023-02-11T06:58:20;1022.24;;;-4.04;67.72
54144;BME280;40050;47.324;18.792;2023-02-11T07:00:22;1022.19;;;-4.01;67.89
54144;BME280;40050;47.324;18.792;2023-02-11T07:02:25;1022.18;;;-3.96;68.07
54144;BME280;40050;47.324;18.792;2023-02-11T07:04:27;1022.17;;;-3.87;68.07
54144;BME280;40050;47.324;18.792;2023-02-11T07:06:30;1022.22;;;-3.83;68.23
54144;BME280;40050;47.324;18.792;2023-02-11T07:08:32;1022.11;;;-3.78;68.34
54144;BME280;40050;47.324;18.792;2023-02-11T07:10:35;1022.10;;;-3.69;68.38
54144;BME280;40050;47.324;18.792;2023-02-11T07:12:37;1022.09;;;-3.60;68.40
54144;BME280;40050;47.324;18.792;2023-02-11T07:14:40;1022.11;;;-3.51;68.40
54144;BME280;40050;47.324;18.792;2023-02-11T07:16:42;1022.13;;;-3.49;68.58
54144;BME280;40050;47.324;18.792;2023-02-11T07:18:45;1021.96;;;-3.52;68.78
54144;BME280;40050;47.324;18.792;2023-02-11T07:20:48;1022.03;;;-3.37;69.03
54144;BME280;40050;47.324;18.792;2023-02-11T07:22:50;1022.04;;;-3.30;69.08
54144;BME280;40050;47.324;18.792;2023-02-11T07:24:54;1022.12;;;-3.17;69.06
54144;BME280;40050;47.324;18.792;2023-02-11T07:26:57;1022.08;;;-3.14;69.21
54144;BME280;40050;47.324;18.792;2023-02-11T07:28:59;1022.11;;;-3.06;69.24
54144;BME280;40050;47.324;18.792;2023-02-11T07:31:09;1022.13;;;-2.96;69.18
54144;BME280;40050;47.324;18.792;2023-02-11T07:33:12;1022.13;;;-2.90;69.29
54144;BME280;40050;47.324;18.792;2023-02-11T07:35:14;1022.08;;;-2.87;69.34
54144;BME280;40050;47.324;18.792;2023-02-11T07:37:17;1022.16;;;-2.75;69.46
54144;BME280;40050;47.324;18.792;2023-02-11T07:39:19;1022.08;;;-2.70;69.72
54144;BME280;40050;47.324;18.792;2023-02-11T07:41:22;1022.16;;;-2.62;69.84
54144;BME280;40050;47.324;18.792;2023-02-11T07:43:25;1022.12;;;-2.56;69.94
54144;BME280;40050;47.324;18.792;2023-02-11T07:45:28;1022.10;;;-2.52;69.99
54144;BME280;40050;47.324;18.792;2023-02-11T07:47:30;1022.17;;;-2.44;69.95
54144;BME280;40050;47.324;18.792;2023-02-11T07:49:33;1022.20;;;-2.34;69.85
54144;BME280;40050;47.324;18.792;2023-02-11T07:51:35;1022.10;;;-2.26;69.81
54144;BME280;40050;47.324;18.792;2023-02-11T07:53:38;1022.03;;;-2.24;69.89
54144;BME280;40050;47.324;18.792;2023-02-11T07:55:41;1022.05;;;-2.13;70.01
54144;BME280;40050;47.324;18.792;2023-02-11T07:57:44;1022.01;;;-1.99;69.94
54144;BME280;40050;47.324;18.792;2023-02-11T07:59:46;1021.91;;;-1.91;69.86
54144;BME280;40050;47.324;18.792;2023-02-11T08:01:49;1021.92;;;-1.84;70.00
54144;BME280;40050;47.324;18.792;2023-02-11T08:03:52;1021.81;;;-1.79;70.04
54144;BME280;40050;47.324;18.792;2023-02-11T08:05:55;1021.89;;;-1.69;70.09
54144;BME280;40050;47.324;18.792;2023-02-11T08:07:57;1021.86;;;-1.63;70.12
54144;BME280;40050;47.324;18.792;2023-02-11T08:10:00;1021.84;;;-1.52;70.24
54144;BME280;40050;47.324;18.792;2023-02-11T08:12:02;1021.86;;;-1.38;70.58
54144;BME280;40050;47.324;18.792;2023-02-11T08:14:05;1021.93;;;-1.29;70.55
54144;BME280;40050;47.324;18.792;2023-02-11T08:16:07;1021.93;;;-1.20;70.56
54144;BME280;40050;47.324;18.792;2023-02-11T08:18:10;1021.88;;;-1.14;70.55
54144;BME280;40050;47.324;18.792;2023-02-11T08:22:16;1021.86;;;-0.85;70.20
54144;BME280;40050;47.324;18.792;2023-02-11T08:24:18;1021.94;;;-0.74;70.19
54144;BME280;40050;47.324;18.792;2023-02-11T08:26:21;1021.92;;;-0.70;70.35
54144;BME280;40050;47.324;18.792;2023-02-11T08:28:25;1021.99;;;-0.57;70.47
54144;BME280;40050;47.324;18.792;2023-02-11T08:30:27;1021.91;;;-0.46;70.44
54144;BME280;40050;47.324;18.792;2023-02-11T08:32:30;1021.91;;;-0.37;70.42
54144;BME280;40050;47.324;18.792;2023-02-11T08:34:32;1021.87;;;-0.26;70.42
54144;BME280;40050;47.324;18.792;2023-02-11T08:36:35;1021.85;;;-0.18;70.20
54144;BME280;40050;47.324;18.792;2023-02-11T08:38:37;1021.87;;;-0.10;70.27
54144;BME280;40050;47.324;18.792;2023-02-11T08:40:40;1021.73;;;-0.03;70.23
54144;BME280;40050;47.324;18.792;2023-02-11T08:42:42;1021.74;;;0.14;70.18
54144;BME280;40050;47.324;18.792;2023-02-11T08:44:45;1021.71;;;0.20;70.00
54144;BME280;40050;47.324;18.792;2023-02-11T08:46:48;1021.74;;;0.29;70.02
54144;BME280;40050;47.324;18.792;2023-02-11T08:48:51;1021.78;;;0.38;69.63
54144;BME280;40050;47.324;18.792;2023-02-11T08:50:54;1021.82;;;0.43;69.44
54144;BME280;40050;47.324;18.792;2023-02-11T08:52:57;1021.82;;;0.52;69.43
54144;BME280;40050;47.324;18.792;2023-02-11T08:54:59;1021.81;;;0.65;69.38
54144;BME280;40050;47.324;18.792;2023-02-11T08:57:02;1021.80;;;0.73;69.36
54144;BME280;40050;47.324;18.792;2023-02-11T08:59:04;1021.77;;;0.86;69.06
54144;BME280;40050;47.324;18.792;2023-02-11T09:01:08;1021.74;;;0.91;69.09
54144;BME280;40050;47.324;18.792;2023-02-11T09:03:11;1021.78;;;0.97;69.07
54144;BME280;40050;47.324;18.792;2023-02-11T09:05:14;1021.81;;;1.07;69.12
54144;BME280;40050;47.324;18.792;2023-02-11T09:07:16;1021.79;;;1.15;68.92
54144;BME280;40050;47.324;18.792;2023-02-11T09:09:19;1021.77;;;1.20;68.75
54144;BME280;40050;47.324;18.792;2023-02-11T09:11:24;1021.77;;;1.25;68.71
54144;BME280;40050;47.324;18.792;2023-02-11T09:13:27;1021.72;;;1.27;68.61
54144;BME280;40050;47.324;18.792;2023-02-11T09:15:29;1021.63;;;1.32;68.36
54144;BME280;40050;47.324;18.792;2023-02-11T09:17:32;1021.69;;;1.48;68.25
54144;BME280;40050;47.324;18.792;2023-02-11T09:19:34;1021.68;;;1.62;67.68
54144;BME280;40050;47.324;18.792;2023-02-11T09:21:37;1021.66;;;1.73;67.70
54144;BME280;40050;47.324;18.792;2023-02-11T09:23:39;1021.64;;;1.90;66.79
54144;BME280;40050;47.324;18.792;2023-02-11T09:25:42;1021.63;;;2.04;66.63
54144;BME280;40050;47.324;18.792;2023-02-11T09:27:44;1021.56;;;2.14;66.60
54144;BME280;40050;47.324;18.792;2023-02-11T09:29:47;1021.52;;;2.31;66.32
54144;BME280;40050;47.324;18.792;2023-02-11T09:31:49;1021.51;;;2.43;65.01
54144;BME280;40050;47.324;18.792;2023-02-11T09:33:56;1021.51;;;2.49;64.57
54144;BME280;40050;47.324;18.792;2023-02-11T09:35:59;1021.55;;;2.52;64.42
54144;BME280;40050;47.324;18.792;2023-02-11T09:38:02;1021.50;;;2.59;64.59
54144;BME280;40050;47.324;18.792;2023-02-11T09:40:05;1021.50;;;2.71;63.74
54144;BME280;40050;47.324;18.792;2023-02-11T09:42:09;1021.40;;;2.76;63.96
54144;BME280;40050;47.324;18.792;2023-02-11T09:44:24;1021.44;;;2.90;62.41
54144;BME280;40050;47.324;18.792;2023-02-11T09:46:26;1021.42;;;3.00;63.02
54144;BME280;40050;47.324;18.792;2023-02-11T09:48:36;1021.44;;;3.13;62.96
54144;BME280;40050;47.324;18.792;2023-02-11T09:50:41;1021.45;;;3.24;63.09
54144;BME280;40050;47.324;18.792;2023-02-11T09:52:46;1021.37;;;3.40;62.45
54144;BME280;40050;47.324;18.792;2023-02-11T09:54:54;1021.13;;;3.40;62.41
54144;BME280;40050;47.324;18.792;2023-02-11T09:56:57;1021.35;;;3.72;62.28
54144;BME280;40050;47.324;18.792;2023-02-11T09:58:59;1021.34;;;3.90;62.18
54144;BME280;40050;47.324;18.792;2023-02-11T10:08:08;1021.27;;;4.57;60.31
54144;BME280;40050;47.324;18.792;2023-02-11T10:12:44;1021.23;;;4.89;58.73
54144;BME280;40050;47.324;18.792;2023-02-11T10:17:25;1021.06;;;4.93;57.66
54144;BME280;40050;47.324;18.792;2023-02-11T10:19:36;1021.06;;;5.21;57.43
54144;BME280;40050;47.324;18.792;2023-02-11T10:21:49;1021.02;;;5.31;56.59
54144;BME280;40050;47.324;18.792;2023-02-11T10:23:53;1021.00;;;5.30;55.92
54144;BME280;40050;47.324;18.792;2023-02-11T10:25:57;1020.97;;;5.30;55.81
54144;BME280;40050;47.324;18.792;2023-02-11T10:28:00;1020.97;;;5.32;56.02
54144;BME280;40050;47.324;18.792;2023-02-11T10:30:22;1020.94;;;5.33;54.90
54144;BME280;40050;47.324;18.792;2023-02-11T10:32:34;1020.88;;;5.30;55.20
54144;BME280;40050;47.324;18.792;2023-02-11T10:34:40;1020.82;;;5.47;55.99
54144;BME280;40050;47.324;18.792;2023-02-11T10:36:43;1020.78;;;5.62;55.23
54144;BME280;40050;47.324;18.792;2023-02-11T10:38:46;1020.75;;;5.78;54.59
54144;BME280;40050;47.324;18.792;2023-02-11T10:40:48;1020.72;;;5.84;53.47
54144;BME280;40050;47.324;18.792;2023-02-11T10:42:52;1020.72;;;5.84;54.09
54144;BME280;40050;47.324;18.792;2023-02-11T10:44:58;1020.57;;;5.82;53.37
54144;BME280;40050;47.324;18.792;2023-02-11T10:47:04;1020.75;;;6.00;54.02
54144;BME280;40050;47.324;18.792;2023-02-11T10:49:10;1020.71;;;6.10;53.59
54144;BME280;40050;47.324;18.792;2023-02-11T10:51:25;1020.66;;;6.19;53.12
54144;BME280;40050;47.324;18.792;2023-02-11T10:53:28;1020.63;;;6.20;53.35
54144;BME280;40050;47.324;18.792;2023-02-11T10:55:31;1020.55;;;6.25;53.38
54144;BME280;40050;47.324;18.792;2023-02-11T10:57:37;1020.58;;;6.35;52.76
54144;BME280;40050;47.324;18.792;2023-02-11T10:59:41;1020.51;;;6.30;52.91
54144;BME280;40050;47.324;18.792;2023-02-11T11:01:45;1020.47;;;6.33;53.21
54144;BME280;40050;47.324;18.792;2023-02-11T11:03:49;1020.44;;;6.52;53.32
54144;BME280;40050;47.324;18.792;2023-02-11T11:05:56;1020.49;;;6.61;53.21
54144;BME280;40050;47.324;18.792;2023-02-11T11:08:01;1020.48;;;6.66;52.73
54144;BME280;40050;47.324;18.792;2023-02-11T11:10:05;1020.48;;;6.79;52.76
54144;BME280;40050;47.324;18.792;2023-02-11T11:14:34;1020.36;;;6.83;52.66
54144;BME280;40050;47.324;18.792;2023-02-11T11:16:37;1020.26;;;6.92;52.33
54144;BME280;40050;47.324;18.792;2023-02-11T11:18:40;1020.29;;;7.09;52.47
54144;BME280;40050;47.324;18.792;2023-02-11T11:20:53;1020.22;;;7.26;52.12
54144;BME280;40050;47.324;18.792;2023-02-11T11:25:27;1020.16;;;7.60;50.43
54144;BME280;40050;47.324;18.792;2023-02-11T11:27:30;1020.09;;;7.71;50.79
54144;BME280;40050;47.324;18.792;2023-02-11T11:29:35;1020.02;;;7.83;50.80
54144;BME280;40050;47.324;18.792;2023-02-11T11:31:45;1020.00;;;8.06;49.49
54144;BME280;40050;47.324;18.792;2023-02-11T11:33:49;1019.92;;;8.10;49.78
54144;BME280;40050;47.324;18.792;2023-02-11T11:36:08;1019.85;;;8.15;48.32
54144;BME280;40050;47.324;18.792;2023-02-11T11:38:11;1019.82;;;8.27;48.46